Main page
METAR-TAF:

METAR-TAF

Airports :

Gabès – Matmata International Airport

Gabès, Tunisia

latitude: 33-53N, longitude: 010-06E, elevation: 4 m

Current weather observation

The report was made 1 hour and 37 minutes ago, at 00:00 UTC
Wind 5 kt from the Southwest
Temperature 18°C
Humidity 64%
Pressure 1023 hPa
Visibility 10 km or more
no clouds below 1500 m and no cumulonimbus

METAR: DTTG 030000Z 22005KT CAVOK 18/11 Q1023 NOSIG

Time: 02:37 (01:37 UTC)

Forecast

The report was made 1 hour and 37 minutes ago, at 00:00 UTC
Forecast valid from 03 at 01 UTC to 03 at 10 UTC
Wind 2 kt from variable directions
Visibility 10 km or more
no clouds below 1500 m and no cumulonimbus

TAF: DTTG 030000Z 0301/0310 VRB02KT CAVOK

Weather observations and forecasts of more than 4000 airports (METAR and TAF reports).

The available stations are represented by yellow and red dots on the map.

Hover mouse over dot to see the name of the station.

Then click to see weather observations and forecasts.

To change the map : click on the green buttons with a black cross to zoom in, on the green button with a dash to zoom out, or on the green arrows for adjacent maps.


METAR-TAF: